Time;durP1;ratioP1;P1;durP2;ratioP2;P2;SDS_P1;SDS_P2;PMS_P1;PMS_P2;Temp;Humidity;BMP_temperature;BMP_pressure;BME280_temperature;BME280_humidity;BME280_pressure;Samples;Min_cycle;Max_cycle;Signal;HPM_P1;HPM_P2
2022/07/04 00:00:14;;;;;;;5.53;2.40;;;18.60;88.70;;;14.76;88.22;100934.97;5062818;28;20106;-86
2022/07/04 00:02:43;;;;;;;7.68;1.90;;;18.70;88.80;;;14.74;88.40;100937.91;5083741;28;20079;-86
2022/07/04 00:05:13;;;;;;;5.35;1.85;;;18.60;88.70;;;14.71;88.57;100932.81;5087014;28;20043;-86
2022/07/04 00:07:41;;;;;;;5.47;1.92;;;18.60;88.70;;;14.69;89.56;100934.09;5076080;28;20120;-86
2022/07/04 00:10:11;;;;;;;6.47;2.03;;;18.60;89.20;;;14.68;89.44;100941.47;5062211;28;20041;-86
2022/07/04 00:12:39;;;;;;;7.10;1.70;;;18.50;89.10;;;14.64;89.79;100931.94;5074304;28;20047;-86
2022/07/04 00:15:08;;;;;;;6.40;1.95;;;18.50;89.50;;;14.60;90.50;100941.59;5072237;28;20777;-86
2022/07/04 00:17:36;;;;;;;5.50;2.10;;;18.50;89.70;;;14.60;90.12;100941.59;5071874;28;20120;-86
2022/07/04 00:20:06;;;;;;;6.35;1.90;;;18.40;89.60;;;14.60;90.33;100947.94;5061738;28;20045;-86
2022/07/04 00:22:34;;;;;;;5.72;2.00;;;18.40;89.80;;;14.56;90.99;100943.03;5078598;28;20124;-86
2022/07/04 00:25:02;;;;;;;5.20;1.70;;;18.40;90.00;;;14.51;91.04;100942.78;5068688;28;20067;-88
2022/07/04 00:27:29;;;;;;;6.80;2.05;;;18.40;89.90;;;14.47;91.35;100940.44;5058407;28;20048;-87
2022/07/04 00:29:56;;;;;;;9.35;2.05;;;18.30;90.20;;;14.43;91.62;100936.44;5069009;28;20717;-87
2022/07/04 00:32:24;;;;;;;5.80;1.55;;;18.30;90.10;;;14.43;91.62;100932.81;5073712;28;20047;-87
2022/07/04 00:34:51;;;;;;;5.32;1.65;;;18.30;90.20;;;14.40;92.05;100923.13;5086664;28;20143;-87
2022/07/04 00:37:18;;;;;;;4.15;1.70;;;18.30;90.40;;;14.39;91.81;100924.19;5061769;28;20424;-87
2022/07/04 00:39:47;;;;;;;7.82;1.80;;;18.20;90.30;;;14.37;92.07;100923.50;5052166;28;20055;-87
2022/07/04 00:42:14;;;;;;;6.45;1.80;;;18.20;90.60;;;14.33;92.35;100926.84;5083081;28;20046;-87
2022/07/04 00:44:41;;;;;;;4.60;1.77;;;18.20;90.70;;;14.34;92.85;100920.34;5079826;28;20139;-86
2022/07/04 00:47:10;;;;;;;4.25;1.70;;;18.20;90.80;;;14.31;92.76;100929.78;5082398;28;20055;-87
2022/07/04 00:49:37;;;;;;;4.95;1.90;;;18.10;91.00;;;14.27;93.25;100928.50;5089144;28;20067;-87
2022/07/04 00:52:06;;;;;;;5.90;1.65;;;18.10;91.00;;;14.26;93.45;100929.56;5081599;28;20044;-87
2022/07/04 00:54:33;;;;;;;4.97;1.90;;;18.10;91.30;;;14.26;94.20;100935.03;5089926;28;20044;-87
2022/07/04 00:57:03;;;;;;;4.45;1.83;;;18.10;91.50;;;14.22;94.24;100928.25;5071894;28;20041;-88
2022/07/04 00:59:30;;;;;;;5.03;1.80;;;18.00;91.50;;;14.23;94.03;100935.41;5070424;28;20060;-87
2022/07/04 01:01:57;;;;;;;4.20;2.00;;;18.00;91.60;;;14.20;93.76;100924.84;5078464;28;20048;-87
2022/07/04 01:04:25;;;;;;;5.57;1.95;;;18.00;91.20;;;14.17;94.16;100919.78;5078796;28;20040;-87
2022/07/04 01:06:53;;;;;;;4.75;1.95;;;18.00;91.20;;;14.18;94.45;100918.72;5088609;28;20052;-87
2022/07/04 01:09:21;;;;;;;7.05;1.90;;;18.00;91.60;;;14.12;94.76;100919.53;5086000;28;20036;-87
2022/07/04 01:11:50;;;;;;;4.85;1.98;;;18.00;91.70;;;14.11;94.51;100912.34;5078570;28;20051;-87
2022/07/04 01:14:19;;;;;;;7.28;1.90;;;17.90;91.80;;;14.11;94.79;100909.63;5072670;28;20188;-87
2022/07/04 01:16:46;;;;;;;5.18;2.20;;;17.90;91.80;;;14.11;94.59;100913.22;5087504;28;20094;-87
2022/07/04 01:19:13;;;;;;;5.10;2.08;;;17.90;91.80;;;14.07;94.59;100915.50;5086539;28;20051;-87
2022/07/04 01:21:42;;;;;;;6.30;2.08;;;17.90;91.80;;;14.06;94.85;100912.97;5074954;28;20123;-87
2022/07/04 01:24:12;;;;;;;7.47;2.05;;;17.90;92.00;;;14.08;94.70;100906.22;5087481;28;20662;-87
2022/07/04 01:26:39;;;;;;;10.02;2.25;;;17.90;92.00;;;14.09;95.24;100898.88;5071346;28;20504;-87
2022/07/04 01:29:07;;;;;;;7.78;2.08;;;17.90;92.30;;;14.11;95.67;100912.34;5069561;28;20121;-87
2022/07/04 01:31:34;;;;;;;6.55;2.00;;;17.90;92.60;;;14.13;95.63;100908.41;5074337;28;20047;-88
2022/07/04 01:34:01;;;;;;;13.57;2.10;;;17.80;92.60;;;14.18;96.26;100910.53;5087402;28;20460;-87
2022/07/04 01:36:28;;;;;;;5.00;1.75;;;17.80;92.90;;;14.21;97.43;100908.25;5071125;28;20131;-87
2022/07/04 01:38:58;;;;;;;4.63;1.83;;;17.80;93.50;;;14.26;97.26;100910.41;5070840;28;20044;-87
2022/07/04 01:41:26;;;;;;;5.47;2.10;;;17.80;93.80;;;14.27;97.46;100910.16;5073189;28;20047;-87
2022/07/04 01:43:53;;;;;;;7.75;2.22;;;17.80;93.80;;;14.26;96.69;100905.75;5087933;28;20253;-87
2022/07/04 01:46:20;;;;;;;5.13;2.25;;;17.90;93.60;;;14.31;96.30;100907.88;5051568;28;20051;-87
2022/07/04 01:48:47;;;;;;;7.53;2.40;;;17.90;93.40;;;14.39;96.13;100907.75;5050712;28;20041;-87
2022/07/04 01:51:14;;;;;;;7.88;2.50;;;17.80;93.30;;;14.40;95.92;100909.44;5066990;28;20605;-87
2022/07/04 01:53:41;;;;;;;4.50;2.17;;;17.80;93.30;;;14.41;95.89;100905.66;5081147;28;20032;-87
2022/07/04 01:56:10;;;;;;;8.05;2.30;;;17.90;93.40;;;14.40;96.14;100914.06;5075790;28;20122;-87
2022/07/04 01:58:37;;;;;;;7.18;2.60;;;17.80;93.60;;;14.36;96.19;100905.41;5078154;28;20068;-87
2022/07/04 02:03:49;;;;;;;6.88;2.28;;;17.80;93.60;;;14.29;96.91;100909.97;5065922;28;20049;-87
2022/07/04 02:06:16;;;;;;;8.27;2.67;;;17.80;94.00;;;14.23;97.92;100913.53;5068986;28;20054;-87
2022/07/04 02:13:00;;;;;;;6.38;2.70;;;17.80;94.50;;;14.21;98.20;100912.88;5076685;28;20047;-87
2022/07/04 02:14:16;;;;;;;6.00;2.50;;;17.80;94.40;;;14.19;97.95;100917.72;5061659;28;20411;-87
2022/07/04 02:16:43;;;;;;;6.75;2.60;;;17.80;94.40;;;14.13;98.53;100918.50;5078859;28;20109;-87
2022/07/04 02:19:10;;;;;;;6.28;2.30;;;17.70;94.60;;;14.06;98.43;100911.06;5069277;28;20476;-88
2022/07/04 02:21:37;;;;;;;6.32;2.10;;;17.70;94.50;;;14.00;99.08;100909.13;5070357;28;20041;-87
2022/07/04 02:24:06;;;;;;;7.22;2.33;;;17.70;94.60;;;13.95;99.60;100916.22;5067576;28;20112;-87
2022/07/04 02:26:34;;;;;;;5.80;2.20;;;17.70;94.60;;;13.89;99.25;100915.97;5082124;28;20059;-87
2022/07/04 02:29:02;;;;;;;5.10;2.38;;;17.70;94.60;;;13.83;99.30;100922.22;5075163;28;20471;-87
2022/07/04 02:31:29;;;;;;;9.00;2.40;;;17.60;94.50;;;13.79;99.96;100922.84;5070392;28;20488;-87
2022/07/04 02:33:56;;;;;;;8.10;3.08;;;17.60;94.60;;;13.76;100.00;100923.22;5067874;28;20040;-87
2022/07/04 02:36:23;;;;;;;7.40;2.30;;;17.50;94.90;;;13.73;100.00;100921.72;5083214;28;20505;-87
2022/07/04 02:38:51;;;;;;;5.30;2.25;;;17.50;95.00;;;13.72;100.00;100925.50;5089785;28;20415;-87
2022/07/04 02:41:18;;;;;;;5.82;2.42;;;17.50;95.10;;;13.70;100.00;100930.31;5077796;28;20042;-87
2022/07/04 02:43:46;;;;;;;6.72;2.60;;;17.50;95.10;;;13.64;100.00;100928.34;5079101;28;20129;-88
2022/07/04 02:46:14;;;;;;;7.28;2.63;;;17.50;95.20;;;13.60;100.00;100933.38;5069989;28;20049;-87
2022/07/04 02:48:41;;;;;;;4.95;2.00;;;17.50;95.20;;;13.57;100.00;100930.16;5061429;28;20080;-87
2022/07/04 02:51:08;;;;;;;5.47;2.53;;;17.40;95.20;;;13.55;100.00;100944.03;5056259;28;20476;-88
2022/07/04 02:53:35;;;;;;;4.40;2.17;;;17.40;95.30;;;13.53;100.00;100942.53;5079768;28;20142;-87
2022/07/04 02:56:03;;;;;;;9.40;2.80;;;17.40;95.20;;;13.55;100.00;100943.19;5069521;28;20052;-87
2022/07/04 02:58:31;;;;;;;6.97;2.60;;;17.40;95.30;;;13.52;100.00;100940.84;5063806;28;20051;-87
2022/07/04 03:01:00;;;;;;;5.80;2.45;;;17.30;95.50;;;13.50;100.00;100941.06;5055259;28;20040;-87
2022/07/04 03:03:28;;;;;;;7.72;2.17;;;17.30;95.70;;;13.46;100.00;100947.91;5080750;28;20111;-87
2022/07/04 03:05:55;;;;;;;5.35;2.38;;;17.30;95.80;;;13.47;100.00;100946.91;5072848;28;20068;-87
2022/07/04 03:08:22;;;;;;;6.03;2.03;;;17.30;95.80;;;13.41;100.00;100955.88;5071163;28;20412;-87
2022/07/04 03:10:51;;;;;;;6.45;2.38;;;17.20;95.70;;;13.37;100.00;100958.16;5081264;28;20102;-87
2022/07/04 03:13:19;;;;;;;4.97;2.05;;;17.20;95.70;;;13.34;100.00;100963.97;5081027;28;20044;-87
2022/07/04 03:15:46;;;;;;;4.45;2.15;;;17.20;95.70;;;13.29;100.00;100975.47;5052873;28;20141;-87
2022/07/04 03:18:15;;;;;;;6.88;2.47;;;17.20;95.70;;;13.26;100.00;100962.19;5055601;28;20284;-87
2022/07/04 03:20:42;;;;;;;5.65;2.00;;;17.20;96.00;;;13.25;100.00;100963.22;5081134;28;20403;-87
2022/07/04 03:23:09;;;;;;;6.07;2.30;;;17.10;96.10;;;13.25;100.00;100965.09;5083275;28;20036;-87
2022/07/04 03:25:37;;;;;;;5.93;2.42;;;17.10;96.20;;;13.25;100.00;100971.44;5054552;28;20041;-87
2022/07/04 03:28:04;;;;;;;5.80;2.30;;;17.10;96.30;;;13.24;100.00;100971.63;5077600;28;20049;-87
2022/07/04 03:30:32;;;;;;;7.28;2.25;;;17.10;96.10;;;13.26;100.00;100977.75;5072442;22;20064;-88
2022/07/04 03:32:59;;;;;;;7.35;2.22;;;17.10;96.20;;;13.26;100.00;100981.31;5051571;28;20037;-89
2022/07/04 03:35:28;;;;;;;7.28;2.42;;;17.00;96.10;;;13.25;100.00;100982.38;5056377;28;20056;-89
2022/07/04 03:37:56;;;;;;;8.70;2.67;;;17.10;96.30;;;13.25;100.00;100974.16;5055838;28;20057;-88
2022/07/04 03:40:24;;;;;;;7.82;2.33;;;17.00;96.20;;;13.25;100.00;100979.63;5064154;28;20528;-89
2022/07/04 03:42:51;;;;;;;4.55;1.95;;;17.00;96.30;;;13.26;100.00;100988.66;5048531;28;20053;-89
2022/07/04 03:45:18;;;;;;;5.82;2.17;;;17.00;96.40;;;13.30;100.00;100987.28;5037535;28;20052;-88
2022/07/04 03:47:45;;;;;;;5.40;2.35;;;17.00;96.60;;;13.32;100.00;100987.94;5045266;28;20069;-88
2022/07/04 03:50:12;;;;;;;6.72;2.47;;;17.00;96.60;;;13.32;100.00;100989.81;5048243;28;20136;-88
2022/07/04 03:52:41;;;;;;;7.60;2.60;;;17.00;96.90;;;13.34;100.00;100987.75;5046463;28;20051;-89
2022/07/04 03:55:09;;;;;;;6.60;2.50;;;17.00;97.10;;;13.37;100.00;100980.00;5037087;28;20044;-88
2022/07/04 03:57:37;;;;;;;7.03;2.45;;;17.00;97.10;;;13.42;100.00;100987.63;5041621;28;20045;-88
2022/07/04 04:00:07;;;;;;;6.20;2.38;;;17.00;97.30;;;13.44;100.00;100986.41;5047468;28;20045;-88
2022/07/04 04:02:39;;;;;;;4.50;2.15;;;17.00;97.60;;;13.45;100.00;100995.47;5048837;28;20045;-88
2022/07/04 04:07:56;;;;;;;9.15;2.53;;;17.00;98.00;;;13.49;100.00;100983.09;5045509;28;20405;-92
2022/07/04 04:10:23;;;;;;;5.78;2.35;;;17.00;98.00;;;13.54;100.00;100986.09;5048094;28;20045;-84
2022/07/04 04:12:50;;;;;;;5.65;2.28;;;17.00;98.30;;;13.56;100.00;100989.50;5048866;28;20383;-84
2022/07/04 04:15:18;;;;;;;5.28;2.38;;;17.00;98.20;;;13.58;100.00;100987.41;5045906;28;20037;-86
2022/07/04 04:17:45;;;;;;;4.88;2.05;;;17.00;98.40;;;13.65;100.00;100987.47;5047776;28;20572;-86
2022/07/04 04:20:13;;;;;;;6.60;2.65;;;17.00;98.40;;;13.72;100.00;100993.03;5049376;28;20036;-93
2022/07/04 04:22:40;;;;;;;6.05;2.10;;;17.00;98.60;;;13.82;100.00;100994.41;5049572;28;20482;-93
2022/07/04 04:25:10;;;;;;;7.80;2.28;;;17.10;98.70;;;13.84;100.00;101003.28;5046888;28;20048;-92
2022/07/04 04:27:37;;;;;;;5.10;2.13;;;17.10;98.90;;;13.87;100.00;101002.03;5049253;28;20040;-93
2022/07/04 04:30:06;;;;;;;6.60;2.40;;;17.10;99.10;;;13.95;100.00;101001.91;5051350;28;20045;-94
2022/07/04 04:32:33;;;;;;;6.65;2.90;;;17.10;99.10;;;14.06;100.00;101001.38;5052546;28;20055;-94
2022/07/04 04:35:00;;;;;;;9.77;3.38;;;17.20;99.20;;;14.21;100.00;101003.22;5041738;28;20052;-94
2022/07/04 04:37:27;;;;;;;6.85;2.72;;;17.20;98.90;;;14.32;100.00;101005.41;5051649;28;20044;-92
2022/07/04 04:39:55;;;;;;;7.95;2.95;;;17.30;99.20;;;14.51;100.00;100997.53;5051880;28;20053;-92
2022/07/04 04:42:23;;;;;;;8.10;3.15;;;17.40;98.80;;;14.66;100.00;101006.56;5058975;28;20079;-93
2022/07/04 04:44:51;;;;;;;5.97;2.85;;;17.40;98.50;;;14.83;100.00;101009.81;5048485;28;20041;-93
2022/07/04 04:47:18;;;;;;;10.52;2.85;;;17.50;98.70;;;14.86;100.00;101002.06;5050842;28;20052;-94
2022/07/04 04:49:47;;;;;;;8.77;2.90;;;17.60;98.70;;;14.97;100.00;101005.31;5051910;28;20099;-95
2022/07/04 04:52:14;;;;;;;9.38;3.05;;;17.60;98.70;;;15.15;99.76;101011.06;5051661;28;20040;-93
2022/07/04 04:54:41;;;;;;;7.85;3.17;;;17.70;98.70;;;15.31;98.75;101009.06;5050061;28;20140;-93
2022/07/04 04:57:08;;;;;;;10.88;3.30;;;17.80;98.20;;;15.48;97.73;101015.91;5048417;28;20036;-93
2022/07/04 04:59:37;;;;;;;7.35;3.63;;;17.90;97.90;;;15.63;96.53;101012.97;5051477;28;20041;-92
2022/07/04 05:02:05;;;;;;;8.60;3.53;;;17.90;97.50;;;15.76;95.53;101006.72;5051420;28;20120;-94
2022/07/04 05:04:32;;;;;;;10.32;5.40;;;18.00;97.30;;;15.91;95.45;101007.38;5037661;28;20874;-93
2022/07/04 05:06:59;;;;;;;9.57;4.45;;;18.10;97.20;;;16.00;94.87;101008.88;5043747;28;20052;-93
2022/07/04 05:09:26;;;;;;;10.02;4.03;;;18.20;97.30;;;16.09;94.15;101006.81;5051442;28;20134;-94
2022/07/04 05:11:54;;;;;;;9.25;4.07;;;18.30;97.00;;;16.20;93.61;101008.06;5051532;28;20037;-95
2022/07/04 05:14:21;;;;;;;11.38;3.90;;;18.40;96.90;;;16.35;92.44;101014.19;5049674;28;20037;-89
2022/07/04 05:16:50;;;;;;;9.57;3.83;;;18.40;96.20;;;16.41;92.59;101007.88;5040297;28;20045;-95
2022/07/04 05:19:18;;;;;;;10.15;4.15;;;18.60;96.30;;;16.47;92.23;101013.56;5029867;28;20077;-90
2022/07/04 05:21:45;;;;;;;9.10;4.15;;;18.60;96.20;;;16.54;92.73;101006.19;5044039;28;20073;-87
2022/07/04 05:24:12;;;;;;;9.10;3.90;;;18.60;96.50;;;16.62;91.90;101011.47;5048288;28;20152;-87
2022/07/04 05:26:40;;;;;;;11.90;4.07;;;18.70;96.40;;;16.68;91.62;101010.63;5042051;28;20045;-88
2022/07/04 05:29:07;;;;;;;9.43;3.70;;;18.70;96.40;;;16.71;91.44;101009.34;5066005;28;20106;-88
2022/07/04 05:31:35;;;;;;;10.63;4.30;;;18.70;96.30;;;16.71;92.26;101010.19;5050054;28;20460;-90
2022/07/04 05:34:03;;;;;;;9.43;3.95;;;18.80;96.60;;;16.72;91.41;101009.13;5050224;28;20047;-90
2022/07/04 05:36:31;;;;;;;10.10;4.35;;;18.80;96.40;;;16.78;91.34;101010.19;5050947;28;20045;-91
2022/07/04 05:38:58;;;;;;;9.18;4.03;;;18.80;96.40;;;16.78;92.08;101016.53;5050580;28;20107;-86
2022/07/04 05:41:26;;;;;;;13.45;4.38;;;18.80;96.50;;;16.78;91.62;101018.44;5043672;28;20480;-88
2022/07/04 05:43:53;;;;;;;9.95;4.30;;;18.80;96.40;;;16.81;91.45;101016.09;5047719;28;20076;-87
2022/07/04 05:46:21;;;;;;;8.93;4.07;;;18.80;96.40;;;16.89;90.98;101016.97;5048686;28;20513;-88
2022/07/04 05:48:48;;;;;;;9.95;3.40;;;18.90;96.40;;;16.92;91.11;101019.28;5037174;28;20084;-88
2022/07/04 05:51:16;;;;;;;10.38;3.50;;;18.90;96.50;;;16.99;91.14;101011.88;5040096;28;20039;-86
2022/07/04 05:53:44;;;;;;;8.18;4.00;;;18.90;96.60;;;17.02;90.65;101019.69;5043026;28;20048;-86
2022/07/04 05:56:11;;;;;;;9.38;3.85;;;19.00;96.40;;;17.16;90.97;101024.09;5044125;28;20120;-86
2022/07/04 05:58:38;;;;;;;14.23;4.13;;;19.00;96.50;;;17.78;89.26;101009.84;5036173;28;20500;-88
2022/07/04 06:01:05;;;;;;;14.80;4.55;;;19.40;96.10;;;18.71;84.81;101009.19;5047159;28;20145;-88
2022/07/04 06:03:33;;;;;;;10.57;4.55;;;19.90;94.70;;;19.76;78.33;101006.56;5050366;28;20073;-87
2022/07/04 06:06:00;;;;;;;13.77;4.68;;;20.30;92.20;;;20.61;74.60;101008.28;5045724;28;20099;-92
2022/07/04 06:08:29;;;;;;;13.43;4.75;;;20.80;90.50;;;21.41;69.59;100998.44;5050225;28;20399;-87
2022/07/04 06:10:58;;;;;;;11.05;4.78;;;21.20;88.50;;;22.10;66.79;101003.97;5040332;28;20049;-87
2022/07/04 06:13:27;;;;;;;12.80;4.80;;;21.60;87.40;;;22.91;62.67;100995.34;5047549;28;20069;-86
2022/07/04 06:15:54;;;;;;;9.88;4.07;;;22.00;85.40;;;23.88;58.81;100997.72;5045756;28;20037;-86
2022/07/04 06:18:21;;;;;;;10.40;3.88;;;22.40;84.20;;;25.03;56.68;100985.31;5048231;28;20053;-86
2022/07/04 06:20:49;;;;;;;8.95;3.45;;;22.70;83.80;;;26.10;52.65;100996.91;5044992;28;20607;-86
2022/07/04 06:23:16;;;;;;;12.07;3.38;;;23.00;82.50;;;27.32;48.44;100985.06;5047843;28;20072;-86
2022/07/04 06:25:44;;;;;;;8.23;3.13;;;23.20;81.50;;;28.76;45.99;100985.78;5046039;28;20052;-87
2022/07/04 06:28:12;;;;;;;10.75;3.53;;;23.40;81.80;;;30.00;41.62;100991.56;5048254;28;20402;-86
2022/07/04 06:30:39;;;;;;;16.17;3.45;;;23.50;80.00;;;31.14;38.88;100985.66;5044047;28;20045;-86
2022/07/04 06:33:06;;;;;;;7.65;3.50;;;23.60;80.70;;;32.01;36.69;100987.75;5048396;28;20535;-86
2022/07/04 06:35:54;;;;;;;8.55;3.17;;;23.70;80.40;;;31.14;37.65;100993.28;5044217;28;20041;-87
2022/07/04 06:38:25;;;;;;;7.13;2.90;;;23.70;81.00;;;27.09;44.71;100998.50;5041092;28;20053;-87
2022/07/04 06:40:55;;;;;;;;;;;23.60;80.30;;;24.74;51.74;101005.19;5047508;28;20037;-88
2022/07/04 06:43:22;;;;;;;11.70;2.30;;;23.50;81.10;;;23.40;56.77;101008.53;5053593;28;20015;-87
2022/07/04 06:45:49;;;;;;;6.63;2.22;;;23.50;81.10;;;22.50;58.65;101005.78;5051254;28;20149;-88
2022/07/04 06:48:16;;;;;;;6.57;2.10;;;23.30;80.60;;;22.12;61.53;101003.72;5053051;28;20068;-88
2022/07/04 06:50:44;;;;;;;9.38;2.40;;;23.20;81.90;;;21.75;62.38;100999.44;5051762;28;20044;-88
2022/07/04 06:53:11;;;;;;;5.85;2.25;;;23.10;81.40;;;21.57;62.83;100997.72;5052974;28;20079;-89
2022/07/04 06:55:39;;;;;;;9.05;2.40;;;23.00;81.20;;;21.44;64.24;100998.84;5046548;28;20063;-89
2022/07/04 06:58:10;;;;;;;7.10;2.38;;;22.90;82.70;;;21.27;64.33;101006.19;5037914;28;20048;-89
2022/07/04 07:00:38;;;;;;;6.57;2.30;;;22.80;81.70;;;21.18;64.98;101004.88;5039289;28;20039;-89
2022/07/04 07:03:05;;;;;;;5.75;1.80;;;22.70;82.20;;;21.17;66.60;101004.06;5043632;28;20095;-89
2022/07/04 07:05:34;;;;;;;6.75;2.22;;;22.60;83.80;;;21.11;64.22;101004.16;5039287;28;20076;-89
2022/07/04 07:08:01;;;;;;;7.43;2.20;;;22.60;81.80;;;21.00;64.40;101001.19;5032240;28;20034;-88
2022/07/04 07:10:28;;;;;;;5.22;2.08;;;22.50;81.60;;;20.99;63.49;101007.78;5043278;28;20081;-88
2022/07/04 07:12:55;;;;;;;5.30;2.03;;;22.40;81.40;;;20.95;65.60;101005.75;5038729;28;20041;-88
2022/07/04 07:15:24;;;;;;;5.43;1.88;;;22.40;83.40;;;20.94;64.53;101010.41;5034502;28;20041;-88
2022/07/04 07:17:51;;;;;;;6.65;2.10;;;22.30;81.80;;;20.98;66.46;101008.03;5029825;28;20045;-89
2022/07/04 07:20:19;;;;;;;6.43;1.98;;;22.30;82.90;;;20.94;66.54;100999.34;5041643;28;20192;-89
2022/07/04 07:22:46;;;;;;;8.50;2.30;;;22.30;83.10;;;21.01;66.86;100999.25;5038126;28;20120;-89
2022/07/04 07:25:14;;;;;;;5.55;1.63;;;22.30;83.70;;;20.96;65.12;100996.34;5036834;28;20053;-89
2022/07/04 07:27:41;;;;;;;5.32;1.77;;;22.20;83.00;;;21.04;64.17;100993.25;5030364;28;20405;-88
2022/07/04 07:30:10;;;;;;;5.53;1.65;;;22.20;82.80;;;21.01;64.25;100996.47;5038421;28;20504;-88
2022/07/04 07:32:38;;;;;;;7.30;2.03;;;22.20;82.10;;;21.05;64.71;100989.38;5033638;28;20041;-89
2022/07/04 07:35:07;;;;;;;4.38;1.70;;;22.20;82.50;;;20.96;64.67;100997.22;5043935;28;20446;-85
2022/07/04 07:37:34;;;;;;;5.65;1.60;;;22.10;82.40;;;20.93;64.77;101014.28;5041929;28;20091;-91
2022/07/04 07:40:02;;;;;;;5.30;1.70;;;22.10;82.10;;;21.05;65.27;101005.97;5038346;28;20060;-90
2022/07/04 07:42:30;;;;;;;5.47;1.90;;;22.10;83.50;;;21.08;68.34;101011.88;5050418;28;20056;-91
2022/07/04 07:44:57;;;;;;;3.75;1.92;;;22.20;84.80;;;21.08;65.40;101006.34;5053046;28;20045;-90
2022/07/04 07:47:24;;;;;;;7.43;2.00;;;22.10;83.00;;;21.09;65.09;101002.50;5042611;28;20056;-90
2022/07/04 07:49:53;;;;;;;6.55;1.80;;;22.10;83.50;;;21.12;63.38;101005.84;5043560;28;20574;-90
2022/07/04 07:52:20;;;;;;;6.55;1.85;;;22.10;81.90;;;21.05;64.09;100995.75;5038540;28;20092;-92
2022/07/04 07:54:47;;;;;;;12.85;1.88;;;22.10;81.60;;;21.19;66.27;101003.78;5042816;28;20068;-91
2022/07/04 07:57:14;;;;;;;4.43;1.20;;;22.10;83.80;;;21.20;63.91;100997.16;5038290;28;20151;-91
2022/07/04 07:59:42;;;;;;;4.65;1.15;;;22.10;82.50;;;21.22;61.87;101006.91;5037781;28;20148;-91
2022/07/04 08:02:09;;;;;;;4.55;1.30;;;22.10;80.30;;;21.26;61.21;101001.72;5049234;28;20056;-90
2022/07/04 08:04:37;;;;;;;5.15;1.10;;;22.10;80.80;;;21.31;62.00;101006.56;5040027;28;20140;-88
2022/07/04 08:07:08;;;;;;;3.55;1.20;;;22.20;81.40;;;21.31;59.62;101010.16;5041670;28;20041;-88
2022/07/04 08:09:37;;;;;;;4.20;1.30;;;22.20;79.40;;;21.37;58.80;101003.63;5036552;28;20044;-87
2022/07/04 08:12:08;;;;;;;5.15;1.02;;;22.20;79.20;;;21.40;59.78;101003.16;5045029;28;20079;-87
2022/07/04 08:14:36;;;;;;;4.25;1.00;;;22.20;79.20;;;21.39;59.54;101003.38;5046257;28;20049;-88
2022/07/04 08:17:05;;;;;;;4.22;1.25;;;22.20;79.60;;;21.30;59.17;101011.22;5040654;28;20719;-86
2022/07/04 08:19:33;;;;;;;4.28;1.13;;;22.20;78.00;;;21.31;59.39;101015.69;5045463;28;20052;-86
2022/07/04 08:22:00;;;;;;;6.72;1.23;;;22.20;78.70;;;21.28;63.18;101010.63;5050702;28;20071;-88
2022/07/04 08:24:28;;;;;;;2.75;0.93;;;22.20;79.90;;;21.40;61.17;101003.16;5050508;28;20051;-87
2022/07/04 08:26:56;;;;;;;4.70;1.17;;;22.20;80.00;;;21.46;57.16;101007.72;5045730;28;20056;-87
2022/07/04 08:29:23;;;;;;;4.93;1.15;;;22.20;78.00;;;21.37;56.37;101003.63;5050797;28;20045;-88
2022/07/04 08:31:50;;;;;;;2.85;1.00;;;22.30;76.30;;;21.33;59.49;101004.38;5051644;28;20053;-89
2022/07/04 08:34:18;;;;;;;4.53;1.30;;;22.20;78.60;;;21.36;58.93;101001.97;5049769;28;20071;-89
2022/07/04 08:36:45;;;;;;;5.70;1.30;;;22.20;77.80;;;21.43;60.07;100999.03;5043261;28;20045;-89
2022/07/04 08:39:13;;;;;;;4.07;1.40;;;22.20;79.60;;;21.43;59.93;100997.09;5065323;28;20049;-88
2022/07/04 08:41:42;;;;;;;9.38;1.65;;;22.20;78.90;;;21.51;60.13;100998.69;5046973;28;20080;-88
2022/07/04 08:44:11;;;;;;;4.53;1.20;;;22.30;79.60;;;21.59;59.85;100984.47;5051322;28;20072;-89
2022/07/04 08:46:42;;;;;;;3.17;1.30;;;22.30;80.00;;;21.67;56.88;100994.31;5050056;28;20040;-89
2022/07/04 08:49:18;;;;;;;7.88;2.05;;;22.30;77.10;;;21.71;60.28;100991.88;5041101;28;20056;-85
2022/07/04 08:51:54;;;;;;;6.65;1.60;;;22.40;79.80;;;21.73;62.08;101003.56;5047650;28;20481;-87
2022/07/04 08:59:58;;;;;;;5.38;1.30;;;22.40;78.20;;;21.84;61.49;100997.97;5055641;28;20053;-89
2022/07/04 09:02:28;;;;;;;4.53;1.25;;;22.40;80.70;;;21.91;59.79;101002.50;5048862;28;20460;-88
2022/07/04 09:04:56;;;;;;;4.20;1.17;;;22.50;80.00;;;21.89;57.78;100999.97;5049153;28;20079;-88
2022/07/04 09:07:23;;;;;;;3.83;1.10;;;22.50;78.20;;;21.86;57.18;100994.94;5049812;28;20517;-88
2022/07/04 09:09:51;;;;;;;5.28;1.50;;;22.50;77.30;;;21.79;57.73;100992.31;5049368;28;20056;-88
2022/07/04 09:12:20;;;;;;;6.85;1.77;;;22.50;77.00;;;21.80;58.99;100994.00;5037593;28;20501;-88
2022/07/04 09:14:47;;;;;;;5.88;1.23;;;22.50;78.10;;;21.82;57.07;100993.78;5048610;28;20043;-88
2022/07/04 09:17:14;;;;;;;5.55;1.60;;;22.60;77.80;;;21.86;59.17;100979.16;5050966;28;20550;-88
2022/07/04 09:19:42;;;;;;;5.05;1.40;;;22.60;79.10;;;21.98;57.78;100986.56;5048741;28;20045;-88
2022/07/04 09:22:11;;;;;;;7.50;1.65;;;22.60;78.00;;;22.01;58.46;100983.31;5049481;28;20040;-91
2022/07/04 09:24:49;;;;;;;4.00;1.52;;;22.60;79.30;;;22.04;59.51;100986.41;5047286;28;20060;-91
2022/07/04 09:27:35;;;;;;;4.93;1.70;;;22.70;80.60;;;22.05;60.39;100987.25;5050803;28;20048;-90
2022/07/04 09:30:04;;;;;;;5.22;1.70;;;22.70;80.90;;;22.09;59.27;100980.13;5037287;28;20137;-91
2022/07/04 09:32:39;;;;;;;6.50;1.50;;;22.80;80.70;;;22.00;59.32;100984.38;5044447;28;21580;-80
2022/07/04 09:35:09;;;;;;;4.95;1.40;;;22.70;79.20;;;22.05;57.35;100979.78;5044493;28;20069;-90
2022/07/04 09:37:40;;;;;;;4.77;1.33;;;22.70;77.90;;;22.16;62.08;100977.19;5047549;28;20041;-91
2022/07/04 09:40:10;;;;;;;8.27;1.20;;;22.80;82.30;;;22.17;58.88;100974.16;5033889;28;20133;-91
2022/07/04 09:42:42;;;;;;;5.22;1.50;;;22.80;79.30;;;22.10;60.10;100973.47;5045967;28;20048;-90
2022/07/04 09:45:12;;;;;;;5.45;1.20;;;22.80;79.80;;;22.15;57.06;100981.88;5058455;22;20037;-88
2022/07/04 09:47:41;;;;;;;4.63;1.30;;;22.80;77.30;;;22.18;59.55;100986.94;5004240;28;20137;-90
2022/07/04 09:50:11;;;;;;;5.50;1.67;;;22.80;80.10;;;22.25;58.73;100986.78;5010144;28;20115;-89
2022/07/04 09:52:51;;;;;;;8.10;1.40;;;22.90;80.00;;;22.22;56.33;100971.47;5011324;28;20498;-89
2022/07/04 09:55:27;;;;;;;4.72;1.38;;;22.90;76.70;;;22.24;56.32;100980.38;5009407;28;20049;-90
2022/07/04 09:57:58;;;;;;;4.40;1.30;;;22.90;76.60;;;22.23;58.73;100973.16;5006253;28;20056;-89
2022/07/04 10:00:27;;;;;;;4.95;1.30;;;22.90;78.90;;;22.25;59.07;100973.75;5002843;28;20113;-90
2022/07/04 10:02:57;;;;;;;6.72;1.52;;;22.90;78.90;;;22.33;60.00;100974.44;5009687;28;20066;-89
2022/07/04 10:05:27;;;;;;;6.95;1.50;;;22.90;80.40;;;22.38;56.84;100980.09;5009041;28;20084;-89
2022/07/04 10:07:56;;;;;;;4.15;1.20;;;23.00;77.20;;;22.35;56.89;100981.44;5005069;28;20478;-90
2022/07/04 10:10:33;;;;;;;5.10;1.73;;;23.00;77.20;;;22.38;60.51;100978.16;5007229;28;20048;-89
2022/07/04 10:13:04;;;;;;;7.75;1.58;;;23.00;79.90;;;22.44;58.11;100979.06;5005422;28;20514;-89
2022/07/04 10:15:32;;;;;;;4.10;1.40;;;23.00;78.90;;;22.49;60.60;100981.94;5016208;28;20073;-90
2022/07/04 10:18:01;;;;;;;4.82;1.52;;;23.00;80.40;;;22.55;56.60;100969.81;5003008;28;20410;-90
2022/07/04 10:20:28;;;;;;;4.53;1.30;;;23.10;76.60;;;22.62;56.77;100975.22;5009734;28;20465;-90
2022/07/04 10:22:55;;;;;;;4.78;1.40;;;23.20;77.40;;;22.64;56.64;100973.84;5007495;28;20048;-90
2022/07/04 10:25:23;;;;;;;4.53;1.50;;;23.10;77.30;;;22.67;57.87;100971.66;5002442;28;20030;-90
2022/07/04 10:27:51;;;;;;;4.35;1.27;;;23.10;78.30;;;22.74;59.04;100972.31;4982926;28;20046;-89